sensor_id;sensor_type;location;lat;lon;timestamp;pressure;altitude;pressure_sealevel;temperature;humidity
3748;BME280;1889;50.058;8.688;2023-05-27T00:00:04;101214.50;;;17.11;43.88
3748;BME280;1889;50.058;8.688;2023-05-27T00:02:34;101209.70;;;17.09;43.88
3748;BME280;1889;50.058;8.688;2023-05-27T00:05:04;101205.44;;;16.70;44.99
3748;BME280;1889;50.058;8.688;2023-05-27T00:07:34;101203.18;;;16.34;45.73
3748;BME280;1889;50.058;8.688;2023-05-27T00:10:03;101203.88;;;16.23;46.04
3748;BME280;1889;50.058;8.688;2023-05-27T00:12:33;101203.88;;;16.23;46.04
3748;BME280;1889;50.058;8.688;2023-05-27T00:15:03;101204.63;;;16.29;45.85
3748;BME280;1889;50.058;8.688;2023-05-27T00:17:32;101204.63;;;16.29;45.85
3748;BME280;1889;50.058;8.688;2023-05-27T00:20:03;101200.59;;;16.49;46.07
3748;BME280;1889;50.058;8.688;2023-05-27T00:22:34;101205.66;;;16.22;45.82
3748;BME280;1889;50.058;8.688;2023-05-27T00:25:04;101206.16;;;16.38;46.19
3748;BME280;1889;50.058;8.688;2023-05-27T00:27:34;101203.94;;;16.57;45.66
3748;BME280;1889;50.058;8.688;2023-05-27T00:30:03;101200.77;;;16.62;45.86
3748;BME280;1889;50.058;8.688;2023-05-27T00:32:33;101200.39;;;16.38;46.12
3748;BME280;1889;50.058;8.688;2023-05-27T00:35:02;101198.66;;;16.55;45.12
3748;BME280;1889;50.058;8.688;2023-05-27T00:37:32;101198.66;;;16.55;45.12
3748;BME280;1889;50.058;8.688;2023-05-27T00:40:01;101207.05;;;16.75;45.52
3748;BME280;1889;50.058;8.688;2023-05-27T00:42:33;101211.69;;;16.48;45.92
3748;BME280;1889;50.058;8.688;2023-05-27T00:45:03;101211.69;;;16.48;45.92
3748;BME280;1889;50.058;8.688;2023-05-27T00:47:33;101209.87;;;16.50;45.25
3748;BME280;1889;50.058;8.688;2023-05-27T00:50:03;101209.87;;;16.50;45.25
3748;BME280;1889;50.058;8.688;2023-05-27T00:52:33;101206.34;;;16.69;45.32
3748;BME280;1889;50.058;8.688;2023-05-27T00:55:03;101203.94;;;16.57;45.58
3748;BME280;1889;50.058;8.688;2023-05-27T00:57:32;101203.94;;;16.57;45.58
3748;BME280;1889;50.058;8.688;2023-05-27T01:00:03;101213.80;;;16.71;45.33
3748;BME280;1889;50.058;8.688;2023-05-27T01:02:34;101212.08;;;16.70;45.44
3748;BME280;1889;50.058;8.688;2023-05-27T01:05:04;101212.80;;;16.76;45.60
3748;BME280;1889;50.058;8.688;2023-05-27T01:10:23;101211.30;;;16.28;46.32
3748;BME280;1889;50.058;8.688;2023-05-27T01:13:13;101211.30;;;16.28;46.32
3748;BME280;1889;50.058;8.688;2023-05-27T01:15:32;101211.95;;;16.55;45.55
3748;BME280;1889;50.058;8.688;2023-05-27T01:18:03;101212.98;;;16.50;45.65
3748;BME280;1889;50.058;8.688;2023-05-27T01:20:33;101204.90;;;16.36;45.70
3748;BME280;1889;50.058;8.688;2023-05-27T01:23:03;101204.75;;;16.62;45.56
3748;BME280;1889;50.058;8.688;2023-05-27T01:25:32;101209.64;;;16.22;46.30
3748;BME280;1889;50.058;8.688;2023-05-27T01:28:01;101210.46;;;16.26;46.65
3748;BME280;1889;50.058;8.688;2023-05-27T01:30:31;101204.90;;;16.36;46.31
3748;BME280;1889;50.058;8.688;2023-05-27T01:33:09;101204.90;;;16.36;46.31
3748;BME280;1889;50.058;8.688;2023-05-27T01:35:49;101208.54;;;16.50;45.92
3748;BME280;1889;50.058;8.688;2023-05-27T01:38:19;101202.87;;;16.46;45.90
3748;BME280;1889;50.058;8.688;2023-05-27T01:40:49;101207.61;;;16.53;45.67
3748;BME280;1889;50.058;8.688;2023-05-27T01:43:20;101207.61;;;16.53;45.67
3748;BME280;1889;50.058;8.688;2023-05-27T01:45:50;101201.97;;;16.66;45.46
3748;BME280;1889;50.058;8.688;2023-05-27T01:48:20;101196.13;;;16.51;45.48
3748;BME280;1889;50.058;8.688;2023-05-27T01:50:49;101196.91;;;16.19;46.44
3748;BME280;1889;50.058;8.688;2023-05-27T01:53:19;101194.52;;;16.26;46.29
3748;BME280;1889;50.058;8.688;2023-05-27T01:55:49;101192.23;;;16.11;46.47
3748;BME280;1889;50.058;8.688;2023-05-27T01:58:18;101192.23;;;16.11;46.47
3748;BME280;1889;50.058;8.688;2023-05-27T02:00:47;101190.75;;;15.78;47.59
3748;BME280;1889;50.058;8.688;2023-05-27T02:03:17;101190.75;;;15.78;47.59
3748;BME280;1889;50.058;8.688;2023-05-27T02:05:46;101195.17;;;15.57;48.10
3748;BME280;1889;50.058;8.688;2023-05-27T02:08:16;101190.63;;;15.83;47.56
3748;BME280;1889;50.058;8.688;2023-05-27T02:10:45;101193.31;;;15.62;48.27
3748;BME280;1889;50.058;8.688;2023-05-27T02:13:15;101193.31;;;15.62;48.27
3748;BME280;1889;50.058;8.688;2023-05-27T02:15:44;101186.27;;;15.99;47.49
3748;BME280;1889;50.058;8.688;2023-05-27T02:18:13;101186.37;;;15.76;47.70
3748;BME280;1889;50.058;8.688;2023-05-27T02:20:43;101186.37;;;15.76;47.70
3748;BME280;1889;50.058;8.688;2023-05-27T02:23:12;101180.53;;;15.81;47.83
3748;BME280;1889;50.058;8.688;2023-05-27T02:25:41;101174.11;;;15.70;48.20
3748;BME280;1889;50.058;8.688;2023-05-27T02:28:11;101168.10;;;15.62;48.23
3748;BME280;1889;50.058;8.688;2023-05-27T02:30:41;101171.41;;;15.49;48.67
3748;BME280;1889;50.058;8.688;2023-05-27T02:33:10;101173.67;;;15.04;49.83
3748;BME280;1889;50.058;8.688;2023-05-27T02:35:39;101172.95;;;15.62;48.37
3748;BME280;1889;50.058;8.688;2023-05-27T02:38:09;101171.77;;;15.76;48.00
3748;BME280;1889;50.058;8.688;2023-05-27T02:40:38;101173.86;;;15.61;48.47
3748;BME280;1889;50.058;8.688;2023-05-27T02:43:08;101163.16;;;15.85;47.80
3748;BME280;1889;50.058;8.688;2023-05-27T02:45:37;101163.16;;;15.85;47.80
3748;BME280;1889;50.058;8.688;2023-05-27T02:48:07;101167.95;;;15.89;48.02
3748;BME280;1889;50.058;8.688;2023-05-27T02:50:36;101169.06;;;15.79;48.17
3748;BME280;1889;50.058;8.688;2023-05-27T02:53:05;101166.41;;;15.79;48.26
3748;BME280;1889;50.058;8.688;2023-05-27T02:55:35;101162.98;;;15.93;47.73
3748;BME280;1889;50.058;8.688;2023-05-27T02:58:04;101164.34;;;15.91;47.82
3748;BME280;1889;50.058;8.688;2023-05-27T03:00:34;101162.25;;;15.86;48.00
3748;BME280;1889;50.058;8.688;2023-05-27T03:03:03;101161.66;;;15.51;48.85
3748;BME280;1889;50.058;8.688;2023-05-27T03:05:35;101160.56;;;15.63;48.67
3748;BME280;1889;50.058;8.688;2023-05-27T03:08:04;101160.31;;;15.54;48.97
3748;BME280;1889;50.058;8.688;2023-05-27T03:10:34;101161.31;;;15.47;49.15
3748;BME280;1889;50.058;8.688;2023-05-27T03:13:03;101161.31;;;15.47;49.15
3748;BME280;1889;50.058;8.688;2023-05-27T03:15:32;101164.55;;;14.96;50.35
3748;BME280;1889;50.058;8.688;2023-05-27T03:18:03;101157.51;;;14.94;50.42
3748;BME280;1889;50.058;8.688;2023-05-27T03:20:32;101158.87;;;15.16;50.05
3748;BME280;1889;50.058;8.688;2023-05-27T03:23:02;101157.09;;;15.37;49.64
3748;BME280;1889;50.058;8.688;2023-05-27T03:25:31;101158.84;;;15.38;49.70
3748;BME280;1889;50.058;8.688;2023-05-27T03:28:01;101163.50;;;14.81;51.21
3748;BME280;1889;50.058;8.688;2023-05-27T03:30:31;101163.50;;;14.81;51.21
3748;BME280;1889;50.058;8.688;2023-05-27T03:33:01;101159.71;;;15.16;50.35
3748;BME280;1889;50.058;8.688;2023-05-27T03:35:30;101163.02;;;15.29;49.84
3748;BME280;1889;50.058;8.688;2023-05-27T03:38:00;101156.20;;;15.38;49.66
3748;BME280;1889;50.058;8.688;2023-05-27T03:40:29;101159.64;;;14.99;50.92
3748;BME280;1889;50.058;8.688;2023-05-27T03:42:58;101159.64;;;14.99;50.92
3748;BME280;1889;50.058;8.688;2023-05-27T03:45:28;101157.48;;;15.17;50.59
3748;BME280;1889;50.058;8.688;2023-05-27T03:47:58;101154.25;;;14.79;51.65
3748;BME280;1889;50.058;8.688;2023-05-27T03:50:27;101155.14;;;15.02;50.96
3748;BME280;1889;50.058;8.688;2023-05-27T03:52:56;101153.41;;;15.23;50.40
3748;BME280;1889;50.058;8.688;2023-05-27T03:55:26;101160.44;;;15.24;50.51
3748;BME280;1889;50.058;8.688;2023-05-27T03:57:55;101152.58;;;15.41;50.18
3748;BME280;1889;50.058;8.688;2023-05-27T04:00:25;101154.47;;;15.36;50.27
3748;BME280;1889;50.058;8.688;2023-05-27T04:02:54;101155.66;;;15.21;50.77
3748;BME280;1889;50.058;8.688;2023-05-27T04:05:24;101162.59;;;15.28;50.65
3748;BME280;1889;50.058;8.688;2023-05-27T04:07:53;101151.77;;;15.39;50.45
3748;BME280;1889;50.058;8.688;2023-05-27T04:10:22;101163.27;;;14.93;51.32
3748;BME280;1889;50.058;8.688;2023-05-27T04:12:52;101159.77;;;14.12;53.47
3748;BME280;1889;50.058;8.688;2023-05-27T04:15:21;101159.99;;;13.98;54.29
3748;BME280;1889;50.058;8.688;2023-05-27T04:17:50;101157.64;;;14.08;54.19
3748;BME280;1889;50.058;8.688;2023-05-27T04:20:20;101157.22;;;14.61;52.76
3748;BME280;1889;50.058;8.688;2023-05-27T04:22:50;101150.37;;;14.99;51.76
3748;BME280;1889;50.058;8.688;2023-05-27T04:25:19;101166.44;;;14.10;54.29
3748;BME280;1889;50.058;8.688;2023-05-27T04:27:48;101166.44;;;14.10;54.29
3748;BME280;1889;50.058;8.688;2023-05-27T04:30:18;101166.95;;;14.84;52.88
3748;BME280;1889;50.058;8.688;2023-05-27T04:32:48;101166.95;;;14.84;52.88
3748;BME280;1889;50.058;8.688;2023-05-27T04:35:17;101167.50;;;15.03;52.02
3748;BME280;1889;50.058;8.688;2023-05-27T04:37:47;101167.50;;;15.03;52.02
3748;BME280;1889;50.058;8.688;2023-05-27T04:40:16;101172.98;;;14.69;53.07
3748;BME280;1889;50.058;8.688;2023-05-27T04:42:45;101162.48;;;14.88;52.73
3748;BME280;1889;50.058;8.688;2023-05-27T04:45:15;101171.45;;;15.05;52.47
3748;BME280;1889;50.058;8.688;2023-05-27T04:47:45;101164.82;;;15.05;52.38
3748;BME280;1889;50.058;8.688;2023-05-27T04:50:14;101167.83;;;14.85;52.81
3748;BME280;1889;50.058;8.688;2023-05-27T04:52:43;101178.08;;;14.81;53.12
3748;BME280;1889;50.058;8.688;2023-05-27T04:55:12;101177.95;;;14.63;53.57
3748;BME280;1889;50.058;8.688;2023-05-27T04:57:42;101178.69;;;14.71;53.40
3748;BME280;1889;50.058;8.688;2023-05-27T05:00:12;101174.45;;;15.09;52.62
3748;BME280;1889;50.058;8.688;2023-05-27T05:02:43;101163.51;;;15.25;52.35
3748;BME280;1889;50.058;8.688;2023-05-27T05:05:14;101165.22;;;15.30;52.21
3748;BME280;1889;50.058;8.688;2023-05-27T05:07:44;101176.61;;;14.65;53.72
3748;BME280;1889;50.058;8.688;2023-05-27T05:10:13;101175.61;;;14.70;53.97
3748;BME280;1889;50.058;8.688;2023-05-27T05:12:43;101177.67;;;14.53;54.30
3748;BME280;1889;50.058;8.688;2023-05-27T05:15:12;101172.53;;;14.44;54.39
3748;BME280;1889;50.058;8.688;2023-05-27T05:17:41;101168.67;;;14.63;54.34
3748;BME280;1889;50.058;8.688;2023-05-27T05:20:12;101173.38;;;14.97;53.82
3748;BME280;1889;50.058;8.688;2023-05-27T05:22:41;101169.55;;;15.11;53.37
3748;BME280;1889;50.058;8.688;2023-05-27T05:25:10;101172.96;;;14.70;54.06
3748;BME280;1889;50.058;8.688;2023-05-27T05:27:41;101171.80;;;14.61;54.67
3748;BME280;1889;50.058;8.688;2023-05-27T05:30:11;101170.90;;;15.10;53.73
3748;BME280;1889;50.058;8.688;2023-05-27T05:32:40;101164.92;;;15.43;52.83
3748;BME280;1889;50.058;8.688;2023-05-27T05:35:10;101165.87;;;15.63;52.11
3748;BME280;1889;50.058;8.688;2023-05-27T05:37:39;101167.86;;;15.50;52.37
3748;BME280;1889;50.058;8.688;2023-05-27T05:40:10;101175.48;;;15.46;52.44
3748;BME280;1889;50.058;8.688;2023-05-27T05:42:39;101173.91;;;15.36;52.65
3748;BME280;1889;50.058;8.688;2023-05-27T05:45:09;101181.21;;;15.47;52.79
3748;BME280;1889;50.058;8.688;2023-05-27T05:47:38;101180.36;;;15.88;51.68
3748;BME280;1889;50.058;8.688;2023-05-27T05:50:08;101178.61;;;15.44;52.27
3748;BME280;1889;50.058;8.688;2023-05-27T05:52:37;101175.05;;;15.45;52.26
3748;BME280;1889;50.058;8.688;2023-05-27T05:55:07;101170.30;;;15.62;52.30
3748;BME280;1889;50.058;8.688;2023-05-27T05:57:36;101178.80;;;15.78;51.66
3748;BME280;1889;50.058;8.688;2023-05-27T06:00:06;101180.18;;;15.96;51.04
3748;BME280;1889;50.058;8.688;2023-05-27T06:02:36;101183.48;;;15.65;51.29
3748;BME280;1889;50.058;8.688;2023-05-27T06:05:05;101178.97;;;15.90;51.13
3748;BME280;1889;50.058;8.688;2023-05-27T06:07:35;101184.17;;;15.75;51.15
3748;BME280;1889;50.058;8.688;2023-05-27T06:10:04;101178.63;;;15.43;51.19
3748;BME280;1889;50.058;8.688;2023-05-27T06:12:34;101185.88;;;15.12;52.23
3748;BME280;1889;50.058;8.688;2023-05-27T06:15:04;101185.30;;;14.97;52.73
3748;BME280;1889;50.058;8.688;2023-05-27T06:17:33;101176.44;;;15.42;51.93
3748;BME280;1889;50.058;8.688;2023-05-27T06:20:03;101178.12;;;15.02;52.95
3748;BME280;1889;50.058;8.688;2023-05-27T06:22:32;101181.00;;;15.36;52.41
3748;BME280;1889;50.058;8.688;2023-05-27T06:25:02;101177.80;;;15.18;52.46
3748;BME280;1889;50.058;8.688;2023-05-27T06:27:31;101177.80;;;15.18;52.46
3748;BME280;1889;50.058;8.688;2023-05-27T06:30:00;101170.84;;;15.13;52.45
3748;BME280;1889;50.058;8.688;2023-05-27T06:32:29;101170.19;;;15.00;52.89
3748;BME280;1889;50.058;8.688;2023-05-27T06:34:59;101167.27;;;15.15;53.11
3748;BME280;1889;50.058;8.688;2023-05-27T06:37:28;101166.00;;;15.33;53.03
3748;BME280;1889;50.058;8.688;2023-05-27T06:39:57;101159.94;;;15.71;52.02
3748;BME280;1889;50.058;8.688;2023-05-27T06:42:27;101159.27;;;16.00;51.34
3748;BME280;1889;50.058;8.688;2023-05-27T06:44:56;101164.58;;;16.19;50.95
3748;BME280;1889;50.058;8.688;2023-05-27T06:47:25;101155.03;;;16.46;50.30
3748;BME280;1889;50.058;8.688;2023-05-27T06:49:55;101158.98;;;16.83;49.08
3748;BME280;1889;50.058;8.688;2023-05-27T06:52:24;101154.20;;;16.96;48.94
3748;BME280;1889;50.058;8.688;2023-05-27T06:54:53;101153.95;;;17.05;48.65
3748;BME280;1889;50.058;8.688;2023-05-27T06:57:23;101162.48;;;17.01;47.63
3748;BME280;1889;50.058;8.688;2023-05-27T06:59:52;101156.19;;;16.88;48.41
3748;BME280;1889;50.058;8.688;2023-05-27T07:02:21;101162.25;;;16.94;47.75
3748;BME280;1889;50.058;8.688;2023-05-27T07:04:51;101161.23;;;16.98;48.42
3748;BME280;1889;50.058;8.688;2023-05-27T07:07:22;101153.86;;;17.24;48.24
3748;BME280;1889;50.058;8.688;2023-05-27T07:09:51;101150.52;;;16.85;48.73
3748;BME280;1889;50.058;8.688;2023-05-27T07:12:22;101150.52;;;16.85;48.73
3748;BME280;1889;50.058;8.688;2023-05-27T07:14:51;101151.80;;;16.35;49.76
3748;BME280;1889;50.058;8.688;2023-05-27T07:17:21;101148.58;;;16.38;49.59
3748;BME280;1889;50.058;8.688;2023-05-27T07:19:50;101148.58;;;16.38;49.59
3748;BME280;1889;50.058;8.688;2023-05-27T07:22:19;101149.84;;;16.41;50.48
3748;BME280;1889;50.058;8.688;2023-05-27T07:24:49;101145.44;;;16.58;49.88
3748;BME280;1889;50.058;8.688;2023-05-27T07:27:19;101146.19;;;16.29;50.62
3748;BME280;1889;50.058;8.688;2023-05-27T07:29:48;101145.99;;;16.37;50.78
3748;BME280;1889;50.058;8.688;2023-05-27T07:32:17;101136.30;;;16.52;50.34
3748;BME280;1889;50.058;8.688;2023-05-27T07:34:47;101132.50;;;16.62;50.22
3748;BME280;1889;50.058;8.688;2023-05-27T07:37:16;101135.69;;;16.93;49.95
3748;BME280;1889;50.058;8.688;2023-05-27T07:39:45;101125.05;;;17.24;49.38
3748;BME280;1889;50.058;8.688;2023-05-27T07:42:15;101125.05;;;17.24;49.38
3748;BME280;1889;50.058;8.688;2023-05-27T07:44:44;101123.74;;;17.07;49.80
3748;BME280;1889;50.058;8.688;2023-05-27T07:47:13;101117.88;;;16.95;49.32
3748;BME280;1889;50.058;8.688;2023-05-27T07:49:42;101122.13;;;17.33;49.63
3748;BME280;1889;50.058;8.688;2023-05-27T07:52:12;101122.77;;;17.41;48.10
3748;BME280;1889;50.058;8.688;2023-05-27T07:54:41;101115.51;;;17.31;48.29
3748;BME280;1889;50.058;8.688;2023-05-27T07:57:10;101115.51;;;17.31;48.29
3748;BME280;1889;50.058;8.688;2023-05-27T07:59:40;101105.17;;;17.21;49.34
3748;BME280;1889;50.058;8.688;2023-05-27T08:02:09;101108.37;;;17.63;48.98
3748;BME280;1889;50.058;8.688;2023-05-27T08:04:38;101104.03;;;18.01;47.74
3748;BME280;1889;50.058;8.688;2023-05-27T08:07:08;101105.82;;;18.01;47.74
3748;BME280;1889;50.058;8.688;2023-05-27T08:09:37;101105.82;;;18.01;47.74
3748;BME280;1889;50.058;8.688;2023-05-27T08:12:07;101099.91;;;18.32;47.52
3748;BME280;1889;50.058;8.688;2023-05-27T08:14:36;101090.97;;;18.33;47.21
3748;BME280;1889;50.058;8.688;2023-05-27T08:17:05;101085.47;;;18.51;47.60
3748;BME280;1889;50.058;8.688;2023-05-27T08:19:35;101088.77;;;18.72;46.69
3748;BME280;1889;50.058;8.688;2023-05-27T08:22:04;101087.39;;;18.60;46.26
3748;BME280;1889;50.058;8.688;2023-05-27T08:24:35;101080.03;;;18.41;47.40
3748;BME280;1889;50.058;8.688;2023-05-27T08:27:05;101079.02;;;18.45;46.89
3748;BME280;1889;50.058;8.688;2023-05-27T08:29:34;101075.22;;;18.52;47.03
3748;BME280;1889;50.058;8.688;2023-05-27T08:32:04;101075.48;;;18.71;47.15
3748;BME280;1889;50.058;8.688;2023-05-27T08:34:34;101067.80;;;18.48;46.80
3748;BME280;1889;50.058;8.688;2023-05-27T08:37:03;101063.25;;;18.77;46.58
3748;BME280;1889;50.058;8.688;2023-05-27T08:39:33;101066.24;;;19.04;46.43
3748;BME280;1889;50.058;8.688;2023-05-27T08:42:03;101066.24;;;19.04;46.43
3748;BME280;1889;50.058;8.688;2023-05-27T08:44:32;101062.67;;;19.38;45.42
3748;BME280;1889;50.058;8.688;2023-05-27T08:47:01;101062.67;;;19.38;45.42
3748;BME280;1889;50.058;8.688;2023-05-27T08:49:31;101059.28;;;19.12;45.96
3748;BME280;1889;50.058;8.688;2023-05-27T08:52:02;101055.20;;;19.25;45.55
3748;BME280;1889;50.058;8.688;2023-05-27T08:54:32;101046.44;;;19.44;45.33
3748;BME280;1889;50.058;8.688;2023-05-27T08:57:04;101046.44;;;19.44;45.33
3748;BME280;1889;50.058;8.688;2023-05-27T08:59:35;101049.32;;;19.38;43.98
3748;BME280;1889;50.058;8.688;2023-05-27T09:02:08;101040.31;;;19.64;43.62
3748;BME280;1889;50.058;8.688;2023-05-27T09:04:43;101043.75;;;19.68;43.03
3748;BME280;1889;50.058;8.688;2023-05-27T09:07:08;101043.75;;;19.68;43.03
3748;BME280;1889;50.058;8.688;2023-05-27T09:09:39;101033.06;;;19.68;43.71
3748;BME280;1889;50.058;8.688;2023-05-27T09:12:08;101032.14;;;19.79;42.46
3748;BME280;1889;50.058;8.688;2023-05-27T09:14:37;101025.72;;;20.05;42.34
3748;BME280;1889;50.058;8.688;2023-05-27T09:17:08;101028.62;;;20.10;41.86
3748;BME280;1889;50.058;8.688;2023-05-27T09:19:37;101024.86;;;20.14;41.01
3748;BME280;1889;50.058;8.688;2023-05-27T09:22:08;101024.86;;;20.14;41.01
3748;BME280;1889;50.058;8.688;2023-05-27T09:24:38;101021.74;;;19.83;41.29
3748;BME280;1889;50.058;8.688;2023-05-27T09:27:15;101023.19;;;20.02;41.28
3748;BME280;1889;50.058;8.688;2023-05-27T09:29:40;101019.19;;;20.22;41.54
3748;BME280;1889;50.058;8.688;2023-05-27T09:32:09;101011.86;;;20.37;40.80
3748;BME280;1889;50.058;8.688;2023-05-27T09:34:39;101003.53;;;20.35;40.49
3748;BME280;1889;50.058;8.688;2023-05-27T09:37:13;101008.60;;;20.41;40.78
3748;BME280;1889;50.058;8.688;2023-05-27T09:39:42;101008.60;;;20.41;40.78
3748;BME280;1889;50.058;8.688;2023-05-27T09:42:12;101000.59;;;20.70;41.17
3748;BME280;1889;50.058;8.688;2023-05-27T09:44:41;101003.90;;;20.66;38.82
3748;BME280;1889;50.058;8.688;2023-05-27T09:47:11;100998.62;;;20.44;40.45
3748;BME280;1889;50.058;8.688;2023-05-27T09:49:42;100998.80;;;20.70;40.60
3748;BME280;1889;50.058;8.688;2023-05-27T09:52:11;100998.42;;;20.88;40.03
3748;BME280;1889;50.058;8.688;2023-05-27T09:54:44;100991.16;;;20.81;39.63
3748;BME280;1889;50.058;8.688;2023-05-27T09:57:14;100991.61;;;20.91;39.66
3748;BME280;1889;50.058;8.688;2023-05-27T09:59:43;100993.56;;;21.06;39.77
3748;BME280;1889;50.058;8.688;2023-05-27T10:02:16;100991.61;;;20.91;39.85
3748;BME280;1889;50.058;8.688;2023-05-27T10:04:47;100984.95;;;21.00;39.37
3748;BME280;1889;50.058;8.688;2023-05-27T10:07:17;100984.95;;;21.00;39.37
3748;BME280;1889;50.058;8.688;2023-05-27T10:09:51;100979.94;;;20.73;39.10
3748;BME280;1889;50.058;8.688;2023-05-27T10:12:22;100979.18;;;20.80;39.36
3748;BME280;1889;50.058;8.688;2023-05-27T10:14:51;100976.92;;;21.00;39.48
3748;BME280;1889;50.058;8.688;2023-05-27T10:17:20;100978.20;;;21.10;39.20
3748;BME280;1889;50.058;8.688;2023-05-27T10:19:54;100974.18;;;21.39;38.86
3748;BME280;1889;50.058;8.688;2023-05-27T10:22:23;100976.59;;;21.35;39.06
3748;BME280;1889;50.058;8.688;2023-05-27T10:24:53;100976.59;;;21.35;39.06
3748;BME280;1889;50.058;8.688;2023-05-27T10:27:22;100966.22;;;21.37;38.30
3748;BME280;1889;50.058;8.688;2023-05-27T10:29:58;100966.22;;;21.37;38.30
3748;BME280;1889;50.058;8.688;2023-05-27T10:32:27;100956.83;;;21.64;39.08
3748;BME280;1889;50.058;8.688;2023-05-27T10:34:58;100955.87;;;21.83;38.89
3748;BME280;1889;50.058;8.688;2023-05-27T10:37:32;100948.78;;;21.90;38.50
3748;BME280;1889;50.058;8.688;2023-05-27T10:39:59;100944.39;;;21.98;38.45
3748;BME280;1889;50.058;8.688;2023-05-27T10:42:29;100946.19;;;22.32;37.40
3748;BME280;1889;50.058;8.688;2023-05-27T10:45:07;100946.19;;;22.32;37.40
3748;BME280;1889;50.058;8.688;2023-05-27T10:47:36;100939.19;;;22.29;37.49
3748;BME280;1889;50.058;8.688;2023-05-27T10:50:12;100935.80;;;22.17;36.28
3748;BME280;1889;50.058;8.688;2023-05-27T10:52:42;100943.38;;;22.18;35.91
3748;BME280;1889;50.058;8.688;2023-05-27T10:55:11;100937.47;;;22.11;36.51
3748;BME280;1889;50.058;8.688;2023-05-27T10:57:41;100928.82;;;22.30;36.93
3748;BME280;1889;50.058;8.688;2023-05-27T11:00:10;100924.53;;;22.52;36.94
3748;BME280;1889;50.058;8.688;2023-05-27T11:02:41;100926.80;;;22.60;36.67
3748;BME280;1889;50.058;8.688;2023-05-27T11:05:13;100923.70;;;22.76;36.94
3748;BME280;1889;50.058;8.688;2023-05-27T11:07:43;100926.71;;;22.94;36.92
3748;BME280;1889;50.058;8.688;2023-05-27T11:10:12;100924.30;;;23.12;36.43
3748;BME280;1889;50.058;8.688;2023-05-27T11:12:44;100915.14;;;23.16;36.15
3748;BME280;1889;50.058;8.688;2023-05-27T11:15:16;100908.16;;;23.05;35.68
3748;BME280;1889;50.058;8.688;2023-05-27T11:17:47;100906.72;;;23.23;35.95
3748;BME280;1889;50.058;8.688;2023-05-27T11:20:16;100904.12;;;23.44;36.04
3748;BME280;1889;50.058;8.688;2023-05-27T11:22:51;100901.31;;;23.15;36.25
3748;BME280;1889;50.058;8.688;2023-05-27T11:25:20;100902.85;;;23.19;34.57
3748;BME280;1889;50.058;8.688;2023-05-27T11:27:49;100893.01;;;23.43;35.63
3748;BME280;1889;50.058;8.688;2023-05-27T11:30:23;100886.69;;;23.67;34.96
3748;BME280;1889;50.058;8.688;2023-05-27T11:33:01;100882.77;;;23.72;35.31
3748;BME280;1889;50.058;8.688;2023-05-27T11:35:27;100874.30;;;23.71;34.44
3748;BME280;1889;50.058;8.688;2023-05-27T11:37:57;100874.71;;;23.79;34.65
3748;BME280;1889;50.058;8.688;2023-05-27T11:40:26;100872.64;;;23.99;34.72
3748;BME280;1889;50.058;8.688;2023-05-27T11:43:01;100866.31;;;24.07;34.30
3748;BME280;1889;50.058;8.688;2023-05-27T11:45:27;100857.08;;;24.11;33.86
3748;BME280;1889;50.058;8.688;2023-05-27T11:47:56;100858.25;;;24.14;34.43
3748;BME280;1889;50.058;8.688;2023-05-27T11:50:27;100862.22;;;24.29;33.50
3748;BME280;1889;50.058;8.688;2023-05-27T11:52:57;100852.59;;;24.32;32.94
3748;BME280;1889;50.058;8.688;2023-05-27T11:55:27;100852.86;;;24.07;33.51
3748;BME280;1889;50.058;8.688;2023-05-27T11:57:56;100843.47;;;24.35;33.11
3748;BME280;1889;50.058;8.688;2023-05-27T12:00:25;100843.55;;;24.41;32.86
3748;BME280;1889;50.058;8.688;2023-05-27T12:02:54;100847.96;;;24.13;32.91
3748;BME280;1889;50.058;8.688;2023-05-27T12:05:24;100837.23;;;24.20;32.96
3748;BME280;1889;50.058;8.688;2023-05-27T12:07:53;100833.30;;;24.40;33.67
3748;BME280;1889;50.058;8.688;2023-05-27T12:10:22;100829.62;;;24.55;32.96
3748;BME280;1889;50.058;8.688;2023-05-27T12:12:51;100827.71;;;24.84;32.95
3748;BME280;1889;50.058;8.688;2023-05-27T12:15:20;100822.66;;;24.73;32.03
3748;BME280;1889;50.058;8.688;2023-05-27T12:17:49;100815.25;;;24.69;31.83
3748;BME280;1889;50.058;8.688;2023-05-27T12:20:18;100817.69;;;25.00;32.29
3748;BME280;1889;50.058;8.688;2023-05-27T12:22:47;100814.27;;;25.31;31.96
3748;BME280;1889;50.058;8.688;2023-05-27T12:25:16;100807.96;;;25.44;30.56
3748;BME280;1889;50.058;8.688;2023-05-27T12:27:45;100810.14;;;25.05;29.41
3748;BME280;1889;50.058;8.688;2023-05-27T12:30:14;100806.36;;;25.15;30.21
3748;BME280;1889;50.058;8.688;2023-05-27T12:32:43;100807.91;;;25.52;29.77
3748;BME280;1889;50.058;8.688;2023-05-27T12:35:12;100802.20;;;25.76;30.31
3748;BME280;1889;50.058;8.688;2023-05-27T12:37:41;100793.09;;;25.84;29.60
3748;BME280;1889;50.058;8.688;2023-05-27T12:40:11;100789.89;;;25.97;29.97
3748;BME280;1889;50.058;8.688;2023-05-27T12:42:42;100788.75;;;26.07;29.17
3748;BME280;1889;50.058;8.688;2023-05-27T12:45:11;100790.52;;;26.13;29.70
3748;BME280;1889;50.058;8.688;2023-05-27T12:47:40;100783.39;;;26.56;29.39
3748;BME280;1889;50.058;8.688;2023-05-27T12:50:09;100782.72;;;26.65;28.49
3748;BME280;1889;50.058;8.688;2023-05-27T12:52:38;100778.86;;;26.56;28.16
3748;BME280;1889;50.058;8.688;2023-05-27T12:55:09;100778.29;;;26.64;27.94
3748;BME280;1889;50.058;8.688;2023-05-27T12:57:38;100771.77;;;27.03;28.69
3748;BME280;1889;50.058;8.688;2023-05-27T13:00:08;100763.61;;;27.21;28.44
3748;BME280;1889;50.058;8.688;2023-05-27T13:02:38;100766.60;;;27.41;27.81
3748;BME280;1889;50.058;8.688;2023-05-27T13:05:07;100765.21;;;27.53;27.62
3748;BME280;1889;50.058;8.688;2023-05-27T13:07:37;100763.51;;;27.28;27.85
3748;BME280;1889;50.058;8.688;2023-05-27T13:10:13;100747.45;;;27.49;26.77
3748;BME280;1889;50.058;8.688;2023-05-27T13:12:44;100742.84;;;27.68;26.75
3748;BME280;1889;50.058;8.688;2023-05-27T13:15:13;100744.08;;;26.76;26.99
3748;BME280;1889;50.058;8.688;2023-05-27T13:17:47;100743.86;;;26.79;27.18
3748;BME280;1889;50.058;8.688;2023-05-27T13:20:16;100743.22;;;27.23;27.63
3748;BME280;1889;50.058;8.688;2023-05-27T13:22:46;100740.25;;;27.20;26.56
3748;BME280;1889;50.058;8.688;2023-05-27T13:25:16;100736.73;;;27.02;26.99